Time;durP1;ratioP1;P1;durP2;ratioP2;P2;SDS_P1;SDS_P2;PMS_P1;PMS_P2;Temp;Humidity;BMP_temperature;BMP_pressure;BME280_temperature;BME280_humidity;BME280_pressure;Samples;Min_cycle;Max_cycle;Signal;HPM_P1;HPM_P2
2023/09/19 02:14:32;;;;;;;1999.90;999.90;;;;;;;;;;5090766;23;20248;-70
2023/09/19 02:17:17;;;;;;;1999.90;999.90;;;;;;;;;;4948713;28;20576;-69
2023/09/19 02:20:02;;;;;;;1999.90;999.90;;;;;;;;;;4952217;28;20284;-66
2023/09/19 02:22:46;;;;;;;1999.90;999.90;;;;;;;;;;4950045;28;20235;-70
2023/09/19 02:25:32;;;;;;;1999.90;999.90;;;;;;;;;;4926320;29;20218;-68
2023/09/19 02:28:16;;;;;;;1999.90;999.90;;;;;;;;;;4921634;29;20286;-70
2023/09/19 02:31:05;;;;;;;1999.90;999.90;;;;;;;;;;4923737;29;20343;-69
2023/09/19 02:33:50;;;;;;;1999.90;999.90;;;;;;;;;;4922048;29;20234;-69
2023/09/19 02:36:35;;;;;;;1999.90;999.90;;;;;;;;;;4924075;29;20838;-69
2023/09/19 02:39:20;;;;;;;1999.90;999.90;;;;;;;;;;4923118;29;20234;-70
2023/09/19 02:42:05;;;;;;;1999.90;999.90;;;;;;;;;;4929744;29;20222;-70
2023/09/19 02:44:50;;;;;;;1999.90;999.90;;;;;;;;;;4921703;29;20278;-70
2023/09/19 02:47:36;;;;;;;1999.90;999.90;;;;;;;;;;4930206;29;20339;-70
2023/09/19 02:50:22;;;;;;;1999.90;999.90;;;;;;;;;;4925979;29;20823;-70
2023/09/19 02:53:07;;;;;;;1999.90;999.90;;;;;;;;;;4924060;29;20236;-69
2023/09/19 02:55:53;;;;;;;1999.90;999.90;;;;;;;;;;4940930;29;20224;-69
2023/09/19 02:58:38;;;;;;;1999.90;999.90;;;;;;;;;;4940074;29;20232;-70
2023/09/19 03:01:23;;;;;;;1999.90;999.90;;;;;;;;;;4946158;29;20227;-70
2023/09/19 03:04:11;;;;;;;1999.90;999.90;;;;;;;;;;4946977;28;20240;-70
2023/09/19 03:07:00;;;;;;;1999.90;999.90;;;;;;;;;;4945412;29;20213;-70
2023/09/19 03:09:45;;;;;;;1999.90;999.90;;;;;;;;;;4942394;29;20216;-70
2023/09/19 03:12:30;;;;;;;1999.90;999.90;;;;;;;;;;4934898;29;20235;-70
2023/09/19 03:15:15;;;;;;;1999.90;999.90;;;;;;;;;;4941921;29;20236;-70
2023/09/19 03:18:00;;;;;;;1999.90;999.90;;;;;;;;;;4933785;29;20228;-70
2023/09/19 03:20:54;;;;;;;1999.90;999.90;;;;;;;;;;4944030;29;20216;-69
2023/09/19 03:23:39;;;;;;;1999.90;999.90;;;;;;;;;;4944937;28;20252;-70
2023/09/19 03:26:26;;;;;;;1999.90;999.90;;;;;;;;;;4945942;29;20311;-69
2023/09/19 03:29:11;;;;;;;1999.90;999.90;;;;;;;;;;4944413;29;20705;-70
2023/09/19 03:31:56;;;;;;;1999.90;999.90;;;;;;;;;;4945936;29;20223;-69
2023/09/19 03:34:43;;;;;;;1999.90;999.90;;;;;;;;;;4942954;29;20264;-68
2023/09/19 03:37:29;;;;;;;1999.90;999.90;;;;;;;;;;4951645;29;20590;-69
2023/09/19 03:40:15;;;;;;;1999.90;999.90;;;;;;;;;;4945827;29;20220;-68
2023/09/19 03:43:01;;;;;;;1999.90;999.90;;;;;;;;;;4945999;28;20247;-70
2023/09/19 03:45:46;;;;;;;1999.90;999.90;;;;;;;;;;4940504;29;20213;-70
2023/09/19 03:48:31;;;;;;;1999.90;999.90;;;;;;;;;;4945057;29;20256;-70
2023/09/19 03:51:16;;;;;;;1999.90;999.90;;;;;;;;;;4928987;29;20584;-70
2023/09/19 03:54:04;;;;;;;1999.90;999.90;;;;;;;;;;4942923;29;20239;-69
2023/09/19 03:56:50;;;;;;;1999.90;999.90;;;;;;;;;;4945644;29;20212;-70
2023/09/19 03:59:35;;;;;;;1999.90;999.90;;;;;;;;;;4941544;29;20357;-70
2023/09/19 04:02:23;;;;;;;1999.90;999.90;;;;;;;;;;4919755;29;20705;-69
2023/09/19 04:05:08;;;;;;;1999.90;999.90;;;;;;;;;;4944858;29;20423;-68
2023/09/19 04:07:53;;;;;;;1999.90;999.90;;;;;;;;;;4938829;29;20219;-70
2023/09/19 04:10:39;;;;;;;1999.90;999.90;;;;;;;;;;4949070;29;20227;-70
2023/09/19 04:13:24;;;;;;;1999.90;999.90;;;;;;;;;;4946716;29;20244;-69
2023/09/19 04:16:10;;;;;;;1999.90;999.90;;;;;;;;;;4949200;29;20220;-70
2023/09/19 04:18:55;;;;;;;1999.90;999.90;;;;;;;;;;4948960;29;20264;-70
2023/09/19 04:21:40;;;;;;;1999.90;999.90;;;;;;;;;;4937714;29;20219;-69
2023/09/19 04:24:25;;;;;;;1999.90;999.90;;;;;;;;;;4945211;29;20228;-69
2023/09/19 04:27:12;;;;;;;1999.90;999.90;;;;;;;;;;4921121;29;20225;-69
2023/09/19 04:29:58;;;;;;;1999.90;999.90;;;;;;;;;;4947629;29;20701;-69
2023/09/19 04:32:44;;;;;;;1999.90;999.90;;;;;;;;;;4947852;29;20265;-70
2023/09/19 04:35:31;;;;;;;1999.90;999.90;;;;;;;;;;4948818;29;20611;-69
2023/09/19 04:38:16;;;;;;;1999.90;999.90;;;;;;;;;;4947003;29;20228;-70
2023/09/19 04:41:01;;;;;;;1999.90;999.90;;;;;;;;;;4948876;29;20716;-70
2023/09/19 04:43:47;;;;;;;1999.90;999.90;;;;;;;;;;4945511;29;20242;-72
2023/09/19 04:46:32;;;;;;;1999.90;999.90;;;;;;;;;;4940639;29;20221;-68
2023/09/19 04:49:18;;;;;;;1999.90;999.90;;;;;;;;;;4945263;29;20336;-71
2023/09/19 04:52:03;;;;;;;1999.90;999.90;;;;;;;;;;4938469;29;20446;-68
2023/09/19 04:54:48;;;;;;;1999.90;999.90;;;;;;;;;;4934819;29;20224;-69
2023/09/19 04:57:33;;;;;;;1999.90;999.90;;;;;;;;;;4931484;29;20217;-65
2023/09/19 05:00:23;;;;;;;1999.90;999.90;;;;;;;;;;4926674;29;20229;-67
2023/09/19 05:03:08;;;;;;;1999.90;999.90;;;;;;;;;;4923852;29;20725;-68
2023/09/19 05:05:54;;;;;;;1999.90;999.90;;;;;;;;;;4932952;29;20220;-68
2023/09/19 05:08:38;;;;;;;1999.90;999.90;;;;;;;;;;4932519;29;20213;-70
2023/09/19 05:11:24;;;;;;;1999.90;999.90;;;;;;;;;;4934938;29;20210;-71
2023/09/19 05:14:09;;;;;;;1999.90;999.90;;;;;;;;;;4932449;29;20503;-67
2023/09/19 05:16:55;;;;;;;1999.90;999.90;;;;;;;;;;4920714;29;20216;-68
2023/09/19 05:19:40;;;;;;;1999.90;999.90;;;;;;;;;;4935249;29;20297;-67
2023/09/19 05:22:27;;;;;;;1999.90;999.90;;;;;;;;;;4923312;29;20285;-70
2023/09/19 05:25:16;;;;;;;1999.90;999.90;;;;;;;;;;4929406;29;20336;-70
2023/09/19 05:28:03;;;;;;;1999.90;999.90;;;;;;;;;;4928905;29;20221;-71
2023/09/19 05:30:48;;;;;;;1999.90;999.90;;;;;;;;;;4929779;29;20224;-68
2023/09/19 05:33:35;;;;;;;1999.90;999.90;;;;;;;;;;4921883;29;20237;-68
2023/09/19 05:36:20;;;;;;;1999.90;999.90;;;;;;;;;;4927504;29;20717;-66
2023/09/19 05:39:05;;;;;;;1999.90;999.90;;;;;;;;;;4924342;29;20236;-70
2023/09/19 05:41:50;;;;;;;1999.90;999.90;;;;;;;;;;4937588;29;20663;-72
2023/09/19 05:44:35;;;;;;;1999.90;999.90;;;;;;;;;;4933556;29;20259;-70
2023/09/19 05:47:22;;;;;;;1999.90;999.90;;;;;;;;;;4935224;29;20240;-72
2023/09/19 05:50:09;;;;;;;1999.90;999.90;;;;;;;;;;4919381;29;20348;-71
2023/09/19 05:52:55;;;;;;;1999.90;999.90;;;;;;;;;;4923597;29;20241;-69
2023/09/19 05:55:40;;;;;;;1999.90;999.90;;;;;;;;;;4936089;29;20685;-72
2023/09/19 05:58:25;;;;;;;1999.90;999.90;;;;;;;;;;4926031;29;20592;-71
2023/09/19 06:01:10;;;;;;;1999.90;999.90;;;;;;;;;;4935143;29;20428;-72
2023/09/19 06:03:55;;;;;;;1999.90;999.90;;;;;;;;;;4925200;29;20456;-72
2023/09/19 06:06:42;;;;;;;1999.90;999.90;;;;;;;;;;4928560;29;20265;-72
2023/09/19 06:09:29;;;;;;;1999.90;999.90;;;;;;;;;;4928906;29;20347;-71
2023/09/19 06:12:17;;;;;;;1999.90;999.90;;;;;;;;;;4928913;29;20220;-71
2023/09/19 06:15:02;;;;;;;1999.90;999.90;;;;;;;;;;4934788;29;20217;-72
2023/09/19 06:17:47;;;;;;;1999.90;999.90;;;;;;;;;;4932978;29;20660;-70
2023/09/19 06:20:33;;;;;;;1999.90;999.90;;;;;;;;;;4929761;29;20234;-67
2023/09/19 06:23:21;;;;;;;1999.90;999.90;;;;;;;;;;4923407;29;20406;-69
2023/09/19 06:26:06;;;;;;;1999.90;999.90;;;;;;;;;;4920209;29;20225;-71
2023/09/19 06:28:51;;;;;;;1999.90;999.90;;;;;;;;;;4929783;29;20345;-71
2023/09/19 06:31:36;;;;;;;1999.90;999.90;;;;;;;;;;4928172;29;20221;-70
2023/09/19 06:34:22;;;;;;;1999.90;999.90;;;;;;;;;;4938568;29;20264;-71
2023/09/19 06:37:07;;;;;;;1999.90;999.90;;;;;;;;;;4937465;29;20213;-70
2023/09/19 06:39:53;;;;;;;1999.90;999.90;;;;;;;;;;4946664;29;20228;-68
2023/09/19 06:42:38;;;;;;;1999.90;999.90;;;;;;;;;;4954726;28;20328;-70
2023/09/19 06:45:26;;;;;;;1999.90;999.90;;;;;;;;;;4954329;29;20205;-71
2023/09/19 06:48:12;;;;;;;1999.90;999.90;;;;;;;;;;4953456;29;20200;-71
2023/09/19 06:50:58;;;;;;;1999.90;999.90;;;;;;;;;;4938572;29;20216;-71
2023/09/19 06:53:43;;;;;;;1999.90;999.90;;;;;;;;;;4934128;29;20350;-71
2023/09/19 06:56:32;;;;;;;1999.90;999.90;;;;;;;;;;4927836;29;20209;-71
2023/09/19 06:59:16;;;;;;;1999.90;999.90;;;;;;;;;;4931910;29;20224;-72
2023/09/19 07:02:01;;;;;;;1999.90;999.90;;;;;;;;;;4929154;29;20273;-72
2023/09/19 07:04:46;;;;;;;1999.90;999.90;;;;;;;;;;4921461;29;20299;-72
2023/09/19 07:07:34;;;;;;;1999.90;999.90;;;;;;;;;;4934426;29;20216;-72
2023/09/19 07:10:20;;;;;;;1999.90;999.90;;;;;;;;;;4934854;29;20209;-71
2023/09/19 07:13:08;;;;;;;1999.90;999.90;;;;;;;;;;4934994;29;20252;-71
2023/09/19 07:15:54;;;;;;;1999.90;999.90;;;;;;;;;;4934634;29;20338;-72
2023/09/19 07:18:39;;;;;;;1999.90;999.90;;;;;;;;;;4924905;29;20266;-71
2023/09/19 07:21:24;;;;;;;1999.90;999.90;;;;;;;;;;4930358;29;20752;-73
2023/09/19 07:24:09;;;;;;;1999.90;999.90;;;;;;;;;;4919016;29;20222;-72
2023/09/19 07:26:54;;;;;;;1999.90;999.90;;;;;;;;;;4922168;29;20218;-71
2023/09/19 07:29:40;;;;;;;1999.90;999.90;;;;;;;;;;4930819;29;20278;-72
2023/09/19 07:32:25;;;;;;;1999.90;999.90;;;;;;;;;;4927301;29;20250;-72
2023/09/19 07:35:12;;;;;;;1999.90;999.90;;;;;;;;;;4918581;29;21059;-71
2023/09/19 07:38:01;;;;;;;1999.90;999.90;;;;;;;;;;4934499;29;20217;-72
2023/09/19 07:40:46;;;;;;;1999.90;999.90;;;;;;;;;;4934548;29;20225;-72
2023/09/19 07:43:31;;;;;;;1999.90;999.90;;;;;;;;;;4934079;29;20228;-72
2023/09/19 07:46:17;;;;;;;1999.90;999.90;;;;;;;;;;4915830;29;20233;-72
2023/09/19 07:49:02;;;;;;;1999.90;999.90;;;;;;;;;;4932334;29;20205;-72
2023/09/19 07:51:47;;;;;;;1999.90;999.90;;;;;;;;;;4934517;29;20209;-71
2023/09/19 07:54:35;;;;;;;1999.90;999.90;;;;;;;;;;4934392;29;20701;-72
2023/09/19 07:57:20;;;;;;;1999.90;999.90;;;;;;;;;;4933975;29;20221;-71
2023/09/19 08:00:07;;;;;;;1999.90;999.90;;;;;;;;;;4934271;29;20225;-73
2023/09/19 08:02:53;;;;;;;1999.90;999.90;;;;;;;;;;4934279;29;20304;-72
2023/09/19 08:05:38;;;;;;;1999.90;999.90;;;;;;;;;;4934465;29;20213;-72
2023/09/19 08:08:23;;;;;;;1999.90;999.90;;;;;;;;;;4934351;29;20212;-71
2023/09/19 08:11:11;;;;;;;1999.90;999.90;;;;;;;;;;4934229;29;20214;-72
2023/09/19 08:13:56;;;;;;;1999.90;999.90;;;;;;;;;;4939601;29;20327;-72
2023/09/19 08:16:42;;;;;;;1999.90;999.90;;;;;;;;;;4934049;29;20216;-70
2023/09/19 08:19:31;;;;;;;1999.90;999.90;;;;;;;;;;4940149;29;20229;-72
2023/09/19 08:22:17;;;;;;;1999.90;999.90;;;;;;;;;;4941079;28;20261;-72
2023/09/19 08:25:06;;;;;;;1999.90;999.90;;;;;;;;;;4935711;29;20586;-69
2023/09/19 08:27:51;;;;;;;1999.90;999.90;;;;;;;;;;4926660;29;20300;-71
2023/09/19 08:30:37;;;;;;;1999.90;999.90;;;;;;;;;;4938482;29;20228;-72
2023/09/19 08:33:22;;;;;;;1999.90;999.90;;;;;;;;;;4936215;29;20602;-71
2023/09/19 08:36:09;;;;;;;1999.90;999.90;;;;;;;;;;4945299;29;20299;-72
2023/09/19 08:38:54;;;;;;;1999.90;999.90;;;;;;;;;;4946459;29;20216;-72
2023/09/19 08:41:39;;;;;;;1999.90;999.90;;;;;;;;;;4941922;29;20638;-72
2023/09/19 08:44:24;;;;;;;1999.90;999.90;;;;;;;;;;4939973;29;20440;-72
2023/09/19 08:47:10;;;;;;;1999.90;999.90;;;;;;;;;;4935137;29;20216;-72
2023/09/19 08:50:00;;;;;;;1999.90;999.90;;;;;;;;;;4945023;29;20212;-71
2023/09/19 08:52:47;;;;;;;1999.90;999.90;;;;;;;;;;4929949;28;20233;-72
2023/09/19 08:55:33;;;;;;;1999.90;999.90;;;;;;;;;;4936191;29;20586;-70
2023/09/19 08:58:21;;;;;;;1999.90;999.90;;;;;;;;;;4945514;29;20256;-71
2023/09/19 09:01:06;;;;;;;1999.90;999.90;;;;;;;;;;4947596;29;20224;-72
2023/09/19 09:03:52;;;;;;;1999.90;999.90;;;;;;;;;;4941084;28;20309;-71
2023/09/19 09:06:39;;;;;;;1999.90;999.90;;;;;;;;;;4941312;29;20330;-71
2023/09/19 09:09:25;;;;;;;1999.90;999.90;;;;;;;;;;4938559;29;20205;-71
2023/09/19 09:12:13;;;;;;;1999.90;999.90;;;;;;;;;;4942263;29;20300;-71
2023/09/19 09:14:58;;;;;;;1999.90;999.90;;;;;;;;;;4939387;29;20273;-72
2023/09/19 09:17:44;;;;;;;1999.90;999.90;;;;;;;;;;4936958;29;20201;-72
2023/09/19 09:20:29;;;;;;;1999.90;999.90;;;;;;;;;;4939342;29;20228;-72
2023/09/19 09:23:14;;;;;;;1999.90;999.90;;;;;;;;;;4939073;29;20236;-72
2023/09/19 09:26:02;;;;;;;1999.90;999.90;;;;;;;;;;4947192;29;20248;-73
2023/09/19 09:28:48;;;;;;;1999.90;999.90;;;;;;;;;;4943684;29;20305;-73
2023/09/19 09:31:33;;;;;;;1999.90;999.90;;;;;;;;;;4943618;29;20908;-71
2023/09/19 09:34:18;;;;;;;1999.90;999.90;;;;;;;;;;4942520;29;20236;-72
2023/09/19 09:37:04;;;;;;;1999.90;999.90;;;;;;;;;;4947816;29;20207;-70
2023/09/19 09:39:51;;;;;;;1999.90;999.90;;;;;;;;;;4952719;29;20591;-70
2023/09/19 09:42:39;;;;;;;1999.90;999.90;;;;;;;;;;4935774;29;20523;-71
2023/09/19 09:45:37;;;;;;;1999.90;999.90;;;;;;;;;;4945071;29;20209;-70
2023/09/19 09:48:31;;;;;;;1999.90;999.90;;;;;;;;;;4936752;29;20283;-72
2023/09/19 09:51:18;;;;;;;1999.90;999.90;;;;;;;;;;4943730;29;20210;-71
2023/09/19 09:54:12;;;;;;;1999.90;999.90;;;;;;;;;;4950096;28;20982;-71
2023/09/19 09:56:59;;;;;;;1999.90;999.90;;;;;;;;;;4938726;29;20205;-70
2023/09/19 09:59:47;;;;;;;1999.90;999.90;;;;;;;;;;4940923;29;20225;-71
2023/09/19 10:02:36;;;;;;;1999.90;999.90;;;;;;;;;;4947300;28;20290;-70
2023/09/19 10:05:28;;;;;;;1999.90;999.90;;;;;;;;;;4946487;29;20530;-71
2023/09/19 10:08:19;;;;;;;1999.90;999.90;;;;;;;;;;4941791;29;20753;-70
2023/09/19 10:11:16;;;;;;;1999.90;999.90;;;;;;;;;;4935275;29;20206;-71
2023/09/19 10:14:06;;;;;;;1999.90;999.90;;;;;;;;;;4942003;28;20604;-71
2023/09/19 10:17:00;;;;;;;1999.90;999.90;;;;;;;;;;4946071;29;20220;-71
2023/09/19 10:19:48;;;;;;;1999.90;999.90;;;;;;;;;;4937936;29;20341;-71
2023/09/19 10:22:35;;;;;;;1999.90;999.90;;;;;;;;;;4944728;29;20971;-70
2023/09/19 10:25:22;;;;;;;1999.90;999.90;;;;;;;;;;4937702;29;20232;-71
2023/09/19 10:28:10;;;;;;;1999.90;999.90;;;;;;;;;;4940314;29;20774;-71
2023/09/19 10:30:56;;;;;;;1999.90;999.90;;;;;;;;;;4946993;29;20749;-71
2023/09/19 10:33:43;;;;;;;1999.90;999.90;;;;;;;;;;4945577;29;20329;-72
2023/09/19 10:36:33;;;;;;;1999.90;999.90;;;;;;;;;;4946266;29;20924;-70
2023/09/19 10:39:19;;;;;;;1999.90;999.90;;;;;;;;;;4947995;29;20209;-71
2023/09/19 10:42:06;;;;;;;1999.90;999.90;;;;;;;;;;4941142;29;20217;-71
2023/09/19 10:44:53;;;;;;;1999.90;999.90;;;;;;;;;;4932459;29;20222;-71
2023/09/19 10:47:38;;;;;;;1999.90;999.90;;;;;;;;;;4941256;29;20294;-70
2023/09/19 10:50:26;;;;;;;1999.90;999.90;;;;;;;;;;4936067;29;20237;-71
2023/09/19 10:53:12;;;;;;;1999.90;999.90;;;;;;;;;;4938268;28;20234;-71
2023/09/19 10:55:59;;;;;;;1999.90;999.90;;;;;;;;;;4946510;29;20219;-71
2023/09/19 10:58:45;;;;;;;1999.90;999.90;;;;;;;;;;4944431;29;20205;-69
2023/09/19 11:01:42;;;;;;;1999.90;999.90;;;;;;;;;;4935533;29;20439;-71
2023/09/19 11:04:29;;;;;;;1999.90;999.90;;;;;;;;;;4943109;29;20228;-70
2023/09/19 11:07:16;;;;;;;1999.90;999.90;;;;;;;;;;4951545;29;20210;-71
2023/09/19 11:10:03;;;;;;;1999.90;999.90;;;;;;;;;;4943380;28;20580;-72
2023/09/19 11:12:51;;;;;;;1999.90;999.90;;;;;;;;;;4924865;29;20258;-71
2023/09/19 11:15:55;;;;;;;1999.90;999.90;;;;;;;;;;4937207;29;20715;-70
2023/09/19 11:18:54;;;;;;;1999.90;999.90;;;;;;;;;;4937425;29;20703;-71
2023/09/19 11:21:58;;;;;;;1999.90;999.90;;;;;;;;;;4941251;29;20330;-71
2023/09/19 11:24:45;;;;;;;1999.90;999.90;;;;;;;;;;4944176;29;20587;-71
2023/09/19 11:27:34;;;;;;;1999.90;999.90;;;;;;;;;;4947131;29;20220;-71
2023/09/19 11:30:30;;;;;;;1999.90;999.90;;;;;;;;;;4940090;29;20210;-72
2023/09/19 11:33:20;;;;;;;1999.90;999.90;;;;;;;;;;4935486;29;20252;-70
2023/09/19 11:36:06;;;;;;;1999.90;999.90;;;;;;;;;;4940061;29;20224;-71
2023/09/19 11:42:26;;;;;;;1999.90;999.90;;;;;;;;;;4928342;29;20245;-71
2023/09/19 11:45:29;;;;;;;1999.90;999.90;;;;;;;;;;4936737;29;20213;-72
2023/09/19 11:48:15;;;;;;;1999.90;999.90;;;;;;;;;;4912587;29;20221;-71
2023/09/19 11:51:06;;;;;;;1999.90;999.90;;;;;;;;;;4934613;29;20628;-71
2023/09/19 11:53:52;;;;;;;1999.90;999.90;;;;;;;;;;4936835;29;20249;-72
2023/09/19 11:56:40;;;;;;;1999.90;999.90;;;;;;;;;;4934284;29;20220;-71
2023/09/19 11:59:28;;;;;;;1999.90;999.90;;;;;;;;;;4942303;29;20314;-71
2023/09/19 12:02:18;;;;;;;1999.90;999.90;;;;;;;;;;4939827;29;20365;-72
2023/09/19 12:05:04;;;;;;;1999.90;999.90;;;;;;;;;;4941742;29;20585;-72
2023/09/19 12:07:48;;;;;;;1999.90;999.90;;;;;;;;;;4944117;29;20305;-71
2023/09/19 12:10:33;;;;;;;1999.90;999.90;;;;;;;;;;4933661;29;20509;-72
2023/09/19 12:13:19;;;;;;;1999.90;999.90;;;;;;;;;;4938100;28;20276;-72
2023/09/19 12:16:14;;;;;;;1999.90;999.90;;;;;;;;;;4922256;29;20215;-72
2023/09/19 12:19:18;;;;;;;1999.90;999.90;;;;;;;;;;4933292;29;20727;-70
2023/09/19 12:22:05;;;;;;;1999.90;999.90;;;;;;;;;;4946813;28;20239;-70
2023/09/19 12:24:54;;;;;;;1999.90;999.90;;;;;;;;;;4941241;29;20365;-72
2023/09/19 12:27:44;;;;;;;1999.90;999.90;;;;;;;;;;4939039;29;20350;-72
2023/09/19 12:30:33;;;;;;;1999.90;999.90;;;;;;;;;;4933393;29;20220;-72
2023/09/19 12:33:21;;;;;;;1999.90;999.90;;;;;;;;;;4932450;29;20235;-72
2023/09/19 12:36:21;;;;;;;1999.90;999.90;;;;;;;;;;4947082;29;20239;-73
2023/09/19 12:39:09;;;;;;;1999.90;999.90;;;;;;;;;;4930537;29;20212;-72
2023/09/19 12:41:55;;;;;;;1999.90;999.90;;;;;;;;;;4936938;29;20370;-71
2023/09/19 12:44:42;;;;;;;1999.90;999.90;;;;;;;;;;4945111;29;20218;-72
2023/09/19 12:47:29;;;;;;;1999.90;999.90;;;;;;;;;;4937883;29;20624;-71
2023/09/19 12:50:18;;;;;;;1999.90;999.90;;;;;;;;;;4935150;29;20573;-72
2023/09/19 12:53:03;;;;;;;1999.90;999.90;;;;;;;;;;4937392;29;20249;-72
2023/09/19 12:55:58;;;;;;;1999.90;999.90;;;;;;;;;;4936221;29;20663;-73
2023/09/19 12:58:50;;;;;;;1999.90;999.90;;;;;;;;;;4942585;29;20324;-73
2023/09/19 13:01:40;;;;;;;1999.90;999.90;;;;;;;;;;4943868;29;20233;-73
2023/09/19 13:04:28;;;;;;;1999.90;999.90;;;;;;;;;;4952231;29;20706;-73
2023/09/19 13:07:28;;;;;;;1999.90;999.90;;;;;;;;;;4944032;29;20296;-72
2023/09/19 13:10:16;;;;;;;1999.90;999.90;;;;;;;;;;4937327;29;20219;-72
2023/09/19 13:13:21;;;;;;;1999.90;999.90;;;;;;;;;;4947192;29;20265;-72
2023/09/19 13:16:09;;;;;;;1999.90;999.90;;;;;;;;;;4942496;29;20216;-73
2023/09/19 13:18:56;;;;;;;1999.90;999.90;;;;;;;;;;4948502;29;20208;-72
2023/09/19 13:21:49;;;;;;;1999.90;999.90;;;;;;;;;;4944354;29;20571;-73
2023/09/19 13:24:35;;;;;;;1999.90;999.90;;;;;;;;;;4941013;29;20437;-73
2023/09/19 13:27:22;;;;;;;1999.90;999.90;;;;;;;;;;4939792;29;20211;-72
2023/09/19 13:30:07;;;;;;;1999.90;999.90;;;;;;;;;;4927622;29;20214;-72
2023/09/19 13:32:53;;;;;;;1999.90;999.90;;;;;;;;;;4947138;28;20228;-73
2023/09/19 13:35:40;;;;;;;1999.90;999.90;;;;;;;;;;4942480;29;20214;-73
2023/09/19 13:38:25;;;;;;;1999.90;999.90;;;;;;;;;;4947342;29;20578;-73
2023/09/19 13:41:10;;;;;;;1999.90;999.90;;;;;;;;;;4935184;29;20264;-73
2023/09/19 13:43:57;;;;;;;1999.90;999.90;;;;;;;;;;4947388;29;20245;-72
2023/09/19 13:46:45;;;;;;;1999.90;999.90;;;;;;;;;;4944496;29;20290;-73
2023/09/19 13:49:32;;;;;;;1999.90;999.90;;;;;;;;;;4944729;29;20705;-72
2023/09/19 13:52:17;;;;;;;1999.90;999.90;;;;;;;;;;4947491;28;20202;-72
2023/09/19 13:55:02;;;;;;;1999.90;999.90;;;;;;;;;;4947409;29;20338;-72
2023/09/19 13:57:47;;;;;;;1999.90;999.90;;;;;;;;;;4945944;29;20322;-73
2023/09/19 14:00:34;;;;;;;1999.90;999.90;;;;;;;;;;4944644;29;20351;-73
2023/09/19 14:03:20;;;;;;;1999.90;999.90;;;;;;;;;;4943999;28;20224;-73
2023/09/19 14:06:05;;;;;;;1999.90;999.90;;;;;;;;;;4938480;29;20224;-72
2023/09/19 14:08:50;;;;;;;1999.90;999.90;;;;;;;;;;4934780;29;20222;-73
2023/09/19 14:11:35;;;;;;;1999.90;999.90;;;;;;;;;;4935751;29;20579;-73
2023/09/19 14:14:21;;;;;;;1999.90;999.90;;;;;;;;;;4935577;29;20243;-73
2023/09/19 14:17:09;;;;;;;1999.90;999.90;;;;;;;;;;4936062;29;20212;-73
2023/09/19 14:19:53;;;;;;;1999.90;999.90;;;;;;;;;;4935770;29;20770;-73
2023/09/19 14:22:38;;;;;;;1999.90;999.90;;;;;;;;;;4935319;29;20239;-72
2023/09/19 14:25:24;;;;;;;1999.90;999.90;;;;;;;;;;4935496;29;20291;-73
2023/09/19 14:28:09;;;;;;;1999.90;999.90;;;;;;;;;;4935463;29;20211;-72
2023/09/19 14:30:54;;;;;;;1999.90;999.90;;;;;;;;;;4943030;29;20858;-72
2023/09/19 14:33:40;;;;;;;1999.90;999.90;;;;;;;;;;4935100;29;20243;-73
2023/09/19 14:36:26;;;;;;;1999.90;999.90;;;;;;;;;;4935364;29;20697;-72
2023/09/19 14:39:12;;;;;;;1999.90;999.90;;;;;;;;;;4935537;29;20215;-72
2023/09/19 14:41:56;;;;;;;1999.90;999.90;;;;;;;;;;4937640;29;20231;-73
2023/09/19 14:44:41;;;;;;;1999.90;999.90;;;;;;;;;;4930950;29;20717;-73
2023/09/19 14:47:27;;;;;;;1999.90;999.90;;;;;;;;;;4935283;29;20215;-73
2023/09/19 14:50:15;;;;;;;1999.90;999.90;;;;;;;;;;4935503;29;20217;-72
2023/09/19 14:53:01;;;;;;;1999.90;999.90;;;;;;;;;;4937660;29;20317;-73
2023/09/19 14:55:47;;;;;;;1999.90;999.90;;;;;;;;;;4944248;29;20342;-73
2023/09/19 14:58:33;;;;;;;1999.90;999.90;;;;;;;;;;4934967;29;20209;-72
2023/09/19 15:01:18;;;;;;;1999.90;999.90;;;;;;;;;;4939859;29;20221;-73
2023/09/19 15:04:03;;;;;;;1999.90;999.90;;;;;;;;;;4945915;29;20283;-73
2023/09/19 15:06:49;;;;;;;1999.90;999.90;;;;;;;;;;4944355;29;20217;-74
2023/09/19 15:09:34;;;;;;;1999.90;999.90;;;;;;;;;;4943000;29;20213;-73
2023/09/19 15:12:19;;;;;;;1999.90;999.90;;;;;;;;;;4944917;28;20466;-73
2023/09/19 15:15:05;;;;;;;1999.90;999.90;;;;;;;;;;4954105;29;20224;-74
2023/09/19 15:17:50;;;;;;;1999.90;999.90;;;;;;;;;;4953964;29;20212;-74
2023/09/19 15:20:36;;;;;;;1999.90;999.90;;;;;;;;;;4950946;29;20221;-72
2023/09/19 15:23:22;;;;;;;1999.90;999.90;;;;;;;;;;4945908;29;20221;-73
2023/09/19 15:26:08;;;;;;;1999.90;999.90;;;;;;;;;;4953705;29;20209;-73
2023/09/19 15:28:54;;;;;;;1999.90;999.90;;;;;;;;;;4954186;29;20209;-72
2023/09/19 15:31:39;;;;;;;1999.90;999.90;;;;;;;;;;4933967;29;20210;-73
2023/09/19 15:34:24;;;;;;;1999.90;999.90;;;;;;;;;;4933304;29;20232;-72
2023/09/19 15:37:09;;;;;;;1999.90;999.90;;;;;;;;;;4930322;29;20434;-72
2023/09/19 15:39:55;;;;;;;1999.90;999.90;;;;;;;;;;4947928;29;20301;-73
2023/09/19 15:42:41;;;;;;;1999.90;999.90;;;;;;;;;;4930613;29;20254;-73
2023/09/19 15:45:26;;;;;;;1999.90;999.90;;;;;;;;;;4934512;29;20714;-73
2023/09/19 15:48:11;;;;;;;1999.90;999.90;;;;;;;;;;4927003;29;20697;-72
2023/09/19 15:50:56;;;;;;;1999.90;999.90;;;;;;;;;;4935799;29;20220;-73
2023/09/19 15:53:43;;;;;;;1999.90;999.90;;;;;;;;;;4934159;29;20456;-72
2023/09/19 15:56:29;;;;;;;1999.90;999.90;;;;;;;;;;4930905;29;20209;-72
2023/09/19 15:59:14;;;;;;;1999.90;999.90;;;;;;;;;;4940175;29;20217;-73
2023/09/19 16:02:00;;;;;;;1999.90;999.90;;;;;;;;;;4936915;29;20283;-73
2023/09/19 16:04:45;;;;;;;1999.90;999.90;;;;;;;;;;4939744;29;20639;-73
2023/09/19 16:07:30;;;;;;;1999.90;999.90;;;;;;;;;;4934106;29;20220;-74
2023/09/19 16:10:15;;;;;;;1999.90;999.90;;;;;;;;;;4945843;29;20215;-74
2023/09/19 16:13:01;;;;;;;1999.90;999.90;;;;;;;;;;4949041;28;20353;-74
2023/09/19 16:15:46;;;;;;;1999.90;999.90;;;;;;;;;;4944604;29;20284;-74
2023/09/19 16:18:32;;;;;;;1999.90;999.90;;;;;;;;;;4948242;29;20301;-74
2023/09/19 16:21:19;;;;;;;1999.90;999.90;;;;;;;;;;4944633;29;21519;-73
2023/09/19 16:24:04;;;;;;;1999.90;999.90;;;;;;;;;;4946953;28;20281;-73
2023/09/19 16:26:50;;;;;;;1999.90;999.90;;;;;;;;;;4957298;29;20212;-73
2023/09/19 16:29:36;;;;;;;1999.90;999.90;;;;;;;;;;4957163;29;20207;-72
2023/09/19 16:32:21;;;;;;;1999.90;999.90;;;;;;;;;;4945142;29;20202;-72
2023/09/19 16:35:08;;;;;;;1999.90;999.90;;;;;;;;;;4937476;29;20284;-72
2023/09/19 16:37:52;;;;;;;1999.90;999.90;;;;;;;;;;4937908;29;20318;-73
2023/09/19 16:40:37;;;;;;;1999.90;999.90;;;;;;;;;;4937960;29;20299;-72
2023/09/19 16:43:23;;;;;;;1999.90;999.90;;;;;;;;;;4937021;29;20232;-71
2023/09/19 16:46:11;;;;;;;1999.90;999.90;;;;;;;;;;4937107;29;20401;-72
2023/09/19 16:48:57;;;;;;;1999.90;999.90;;;;;;;;;;4937706;29;20205;-72
2023/09/19 16:51:44;;;;;;;1999.90;999.90;;;;;;;;;;4936201;29;20594;-72
2023/09/19 16:54:28;;;;;;;1999.90;999.90;;;;;;;;;;4948256;28;20232;-71
2023/09/19 16:57:14;;;;;;;1999.90;999.90;;;;;;;;;;4955496;29;20223;-73
2023/09/19 16:59:59;;;;;;;1999.90;999.90;;;;;;;;;;4937086;29;20209;-73
2023/09/19 17:02:49;;;;;;;1999.90;999.90;;;;;;;;;;4932768;29;20236;-72
2023/09/19 17:05:34;;;;;;;1999.90;999.90;;;;;;;;;;4936509;29;20201;-73
2023/09/19 17:08:19;;;;;;;1999.90;999.90;;;;;;;;;;4936259;29;20217;-72
2023/09/19 17:11:04;;;;;;;1999.90;999.90;;;;;;;;;;4937172;29;20225;-73
2023/09/19 17:13:51;;;;;;;1999.90;999.90;;;;;;;;;;4936740;29;20229;-72
2023/09/19 17:16:37;;;;;;;1999.90;999.90;;;;;;;;;;4931856;29;20221;-71
2023/09/19 17:19:23;;;;;;;1999.90;999.90;;;;;;;;;;4934387;29;20265;-72
2023/09/19 17:22:08;;;;;;;1999.90;999.90;;;;;;;;;;4936519;29;20285;-72
2023/09/19 17:24:53;;;;;;;1999.90;999.90;;;;;;;;;;4936548;29;20218;-71
2023/09/19 17:27:38;;;;;;;1999.90;999.90;;;;;;;;;;4936795;29;20217;-71
2023/09/19 17:30:23;;;;;;;1999.90;999.90;;;;;;;;;;4936749;29;20221;-71
2023/09/19 17:33:08;;;;;;;1999.90;999.90;;;;;;;;;;4940568;29;20410;-72
2023/09/19 17:36:05;;;;;;;1999.90;999.90;;;;;;;;;;4937590;29;20213;-72
2023/09/19 17:38:51;;;;;;;1999.90;999.90;;;;;;;;;;4939260;29;20217;-72
2023/09/19 17:41:36;;;;;;;1999.90;999.90;;;;;;;;;;4935881;29;20580;-71
2023/09/19 17:44:21;;;;;;;1999.90;999.90;;;;;;;;;;4938995;28;20357;-71
2023/09/19 17:47:06;;;;;;;1999.90;999.90;;;;;;;;;;4935380;29;20243;-72